Time;durP1;ratioP1;P1;durP2;ratioP2;P2;SDS_P1;SDS_P2;PMS_P1;PMS_P2;Temp;Humidity;BMP_temperature;BMP_pressure;BME280_temperature;BME280_humidity;BME280_pressure;Samples;Min_cycle;Max_cycle;Signal;HPM_P1;HPM_P2
2022/08/11 00:00:42;;;;;;;;;9.50;9.50;;;;;27.58;29.13;101424.94;5021208;28;45521;-63
2022/08/11 00:03:12;;;;;;;;;8.25;8.25;;;;;27.59;29.22;101420.34;5021048;28;45325;-63
2022/08/11 00:05:52;;;;;;;;;4.50;4.50;;;;;27.59;29.21;101428.56;5020916;28;47556;-63
2022/08/11 00:08:28;;;;;;;;;9.00;9.00;;;;;27.56;29.15;101421.47;5021064;28;45337;-63
2022/08/11 00:10:57;;;;;;;;;9.75;8.75;;;;;27.54;29.18;101429.00;5021070;28;45285;-63
2022/08/11 00:13:44;;;;;;;;;8.50;8.50;;;;;27.48;29.53;101414.00;5020875;28;45244;-63
2022/08/11 00:16:17;;;;;;;;;9.00;9.00;;;;;27.52;29.53;101428.28;5016044;28;46195;-63
2022/08/11 00:18:46;;;;;;;;;9.75;9.75;;;;;27.48;29.37;101421.34;5021090;28;45385;-63
2022/08/11 00:21:12;;;;;;;;;8.25;8.25;;;;;27.45;29.61;101425.25;5019646;28;45487;-63
2022/08/11 00:23:51;;;;;;;;;8.50;8.50;;;;;27.37;29.91;101419.63;5020320;28;45456;-63
2022/08/11 00:26:17;;;;;;;;;8.25;8.25;;;;;27.35;29.91;101421.63;5020479;28;47348;-63
2022/08/11 00:28:42;;;;;;;;;9.00;8.25;;;;;27.37;29.85;101416.00;5020629;28;45340;-63
2022/08/11 00:31:18;;;;;;;;;8.25;8.25;;;;;27.34;29.85;101423.50;5020446;28;46041;-63
2022/08/11 00:33:44;;;;;;;;;11.00;9.00;;;;;27.30;29.94;101418.47;5020811;28;45233;-63
2022/08/11 00:36:15;;;;;;;;;9.00;8.25;;;;;27.31;29.94;101417.44;5020602;28;45244;-63
2022/08/11 00:38:43;;;;;;;;;8.00;8.00;;;;;27.29;29.17;101419.47;5020595;28;45502;-63
2022/08/11 00:41:30;;;;;;;;;9.00;9.00;;;;;27.26;29.29;101419.72;5020725;28;45223;-63
2022/08/11 00:44:13;;;;;;;;;8.50;8.50;;;;;27.24;29.09;101428.06;5020299;28;45458;-63
2022/08/11 00:46:53;;;;;;;;;9.25;9.25;;;;;27.23;29.09;101428.22;5020050;28;46301;-63
2022/08/11 00:49:56;;;;;;;;;8.00;8.00;;;;;27.21;28.85;101433.81;5020476;28;45320;-63
2022/08/11 00:52:47;;;;;;;;;7.25;7.00;;;;;27.22;28.72;101426.50;5019190;28;45438;-63
2022/08/11 00:55:32;;;;;;;;;8.75;8.75;;;;;27.21;28.84;101428.34;5017837;28;45452;-63
2022/08/11 00:58:28;;;;;;;;;8.00;8.00;;;;;27.18;28.76;101434.09;5020173;28;47153;-63
2022/08/11 01:01:15;;;;;;;;;8.25;8.25;;;;;27.15;28.44;101426.19;5020086;28;45442;-63
2022/08/11 01:04:00;;;;;;;;;6.00;5.75;;;;;27.09;28.70;101418.53;5020072;28;45529;-63
2022/08/11 01:07:04;;;;;;;;;9.00;9.00;;;;;27.14;28.26;101425.31;5020196;28;45210;-63
2022/08/11 01:10:02;;;;;;;;;7.75;7.00;;;;;27.15;28.38;101426.19;5019844;28;47263;-63
2022/08/11 01:12:52;;;;;;;;;6.75;6.75;;;;;27.14;28.37;101432.66;5000558;28;45457;-63
2022/08/11 01:15:48;;;;;;;;;8.00;8.00;;;;;27.11;28.33;101422.00;5020014;28;45430;-63
2022/08/11 01:18:38;;;;;;;;;8.00;8.00;;;;;27.08;28.28;101428.63;5019958;28;45324;-63
2022/08/11 01:22:00;;;;;;;;;7.75;7.75;;;;;27.08;28.19;101425.91;5018875;28;45364;-63
2022/08/11 01:25:03;;;;;;;;;7.75;7.75;;;;;27.06;28.41;101424.28;4990238;28;45332;-63
2022/08/11 01:27:49;;;;;;;;;7.50;7.00;;;;;27.06;28.57;101414.19;5019784;28;45314;-63
2022/08/11 01:30:33;;;;;;;;;9.75;9.00;;;;;27.06;28.55;101419.66;5019707;28;45114;-63
2022/08/11 01:33:40;;;;;;;;;8.00;8.00;;;;;27.03;28.63;101413.59;5019762;28;46571;-63
2022/08/11 01:36:27;;;;;;;;;6.50;6.50;;;;;27.02;28.76;101420.09;5022255;28;45265;-63
2022/08/11 01:39:07;;;;;;;;;7.00;7.00;;;;;26.98;28.98;101412.16;5023459;28;45514;-63
2022/08/11 01:45:06;;;;;;;;;9.50;9.50;;;;;26.95;29.62;101417.06;5023236;28;45424;-63
2022/08/11 01:47:50;;;;;;;;;4.00;4.00;;;;;26.91;29.67;101410.13;5023144;28;45459;-63
2022/08/11 01:50:42;;;;;;;;;9.00;8.50;;;;;26.87;29.40;101417.75;5023200;28;45476;-63
2022/08/11 01:53:27;;;;;;;;;7.50;7.50;;;;;26.85;29.81;101422.50;5002365;28;45439;-63
2022/08/11 01:55:59;;;;;;;;;8.25;8.25;;;;;26.82;29.90;101422.78;5012101;28;45343;-63
2022/08/11 01:58:49;;;;;;;;;7.25;7.25;;;;;26.80;29.78;101419.31;5022913;28;45572;-63
2022/08/11 02:01:49;;;;;;;;;7.50;7.50;;;;;26.75;29.52;101418.88;5016435;28;45485;-63
2022/08/11 02:04:32;;;;;;;;;7.75;7.25;;;;;26.68;30.24;101414.94;5021833;28;45352;-63
2022/08/11 02:07:20;;;;;;;;;9.00;8.00;;;;;26.69;30.01;101416.69;5022998;28;45475;-63
2022/08/11 02:11:29;;;;;;;;;6.00;6.00;;;;;26.65;30.31;101424.31;5022713;28;45221;-63
2022/08/11 02:12:59;;;;;;;;;9.00;8.00;;;;;26.59;29.64;101414.72;5022813;28;45222;-63
2022/08/11 02:15:36;;;;;;;;;10.00;8.00;;;;;26.58;30.07;101412.13;5022521;28;45383;-63
2022/08/11 02:18:12;;;;;;;;;7.25;7.25;;;;;26.55;29.21;101416.03;5022591;28;45426;-63
2022/08/11 02:24:03;;;;;;;;;8.00;7.50;;;;;26.52;30.09;101419.03;5013183;28;45371;-63
2022/08/11 02:27:06;;;;;;;;;9.50;7.00;;;;;26.49;30.01;101416.56;5022522;28;45261;-63
2022/08/11 02:30:03;;;;;;;;;7.00;7.00;;;;;26.45;30.37;101415.13;5022380;28;46212;-63
2022/08/11 02:35:41;;;;;;;;;9.75;7.50;;;;;26.39;30.16;101416.50;5022736;28;45378;-63
2022/08/11 02:38:23;;;;;;;;;7.50;7.50;;;;;26.37;30.80;101418.53;5022456;28;45340;-63
2022/08/11 02:40:51;;;;;;;;;7.25;7.25;;;;;26.33;30.87;101417.09;5022065;28;46169;-63
2022/08/11 02:43:28;;;;;;;;;6.00;6.00;;;;;26.29;30.75;101401.06;5022304;28;45219;-63
2022/08/11 02:46:05;;;;;;;;;10.00;9.25;;;;;26.27;31.33;101409.41;5021759;28;45319;-63
2022/08/11 02:52:12;;;;;;;;;8.00;8.00;;;;;26.23;30.85;101422.50;5020913;28;45836;-62
2022/08/11 02:54:58;;;;;;;;;9.50;9.50;;;;;26.19;30.80;101410.06;5022194;28;45363;-62
2022/08/11 02:57:35;;;;;;;;;9.50;9.50;;;;;26.17;31.41;101412.09;5022395;28;45549;-63
2022/08/11 03:00:06;;;;;;;;;8.25;8.25;;;;;26.15;31.78;101418.72;5021884;28;45254;-63
2022/08/11 03:03:05;;;;;;;;;9.00;9.00;;;;;26.08;30.70;101407.44;5021968;28;47053;-63
2022/08/11 03:05:59;;;;;;;;;8.25;8.25;;;;;26.09;31.56;101417.34;5011087;28;45526;-63
2022/08/11 03:08:39;;;;;;;;;10.00;9.00;;;;;26.06;31.12;101414.88;5021916;28;45408;-63
2022/08/11 03:17:47;;;;;;;;;10.50;8.50;;;;;25.90;31.57;101407.13;5021871;28;45447;-63
2022/08/11 03:20:44;;;;;;;;;8.75;8.75;;;;;25.95;31.41;101425.91;5022139;28;45277;-63
2022/08/11 03:23:34;;;;;;;;;10.75;8.75;;;;;25.87;31.46;101404.66;5021656;28;45407;-63
2022/08/11 03:26:23;;;;;;;;;11.00;10.25;;;;;25.91;31.38;101410.72;5021480;28;46069;-63
2022/08/11 03:29:30;;;;;;;;;7.25;7.25;;;;;25.86;32.20;101413.84;5021726;28;45469;-63
2022/08/11 03:32:05;;;;;;;;;10.00;10.00;;;;;25.83;32.31;101405.94;5021469;28;45363;-63
2022/08/11 03:34:35;;;;;;;;;11.00;11.00;;;;;25.80;31.38;101407.06;5021460;28;45328;-63
2022/08/11 03:44:17;;;;;;;;;9.50;9.50;;;;;25.68;32.35;101395.31;5021511;28;45291;-63
2022/08/11 03:47:07;;;;;;;;;7.00;7.00;;;;;25.71;32.35;101413.34;5020844;28;45525;-63
2022/08/11 03:49:56;;;;;;;;;10.00;9.00;;;;;25.67;32.21;101400.94;5021181;28;45550;-62
2022/08/11 03:53:00;;;;;;;;;8.25;8.00;;;;;25.62;31.62;101401.31;5008292;28;45471;-62
2022/08/11 03:55:32;;;;;;;;;10.75;8.00;;;;;25.63;32.44;101415.88;5019975;28;46764;-63
2022/08/11 03:58:18;;;;;;;;;9.50;9.50;;;;;25.63;31.87;101415.88;5020372;28;45444;-63
2022/08/11 04:01:16;;;;;;;;;9.50;9.50;;;;;25.61;31.73;101413.28;5020565;28;45564;-63
2022/08/11 04:04:18;;;;;;;;;7.75;7.75;;;;;25.58;32.27;101397.13;5020979;28;45327;-62
2022/08/11 04:07:18;;;;;;;;;10.75;9.75;;;;;25.58;32.01;101399.84;5017757;28;45282;-62
2022/08/11 04:10:11;;;;;;;;;10.25;10.25;;;;;25.59;32.08;101408.91;5020980;28;45241;-63
2022/08/11 04:12:58;;;;;;;;;8.00;8.00;;;;;25.58;31.66;101416.25;5020865;28;45648;-63
2022/08/11 04:18:48;;;;;;;;;8.50;8.50;;;;;25.50;31.32;101403.22;5020999;28;45329;-62
2022/08/11 04:21:44;;;;;;;;;10.00;10.00;;;;;25.50;31.42;101418.78;5020715;28;45303;-62
2022/08/11 04:24:38;;;;;;;;;9.75;9.75;;;;;25.49;32.10;101407.00;5020716;28;46540;-62
2022/08/11 04:27:25;;;;;;;;;11.00;9.50;;;;;25.46;31.68;101415.44;5020696;28;45226;-63
2022/08/11 04:30:13;;;;;;;;;13.25;9.50;;;;;25.40;31.93;101406.91;5020597;28;45215;-62
2022/08/11 04:33:01;;;;;;;;;11.00;9.75;;;;;25.42;31.35;101405.75;5020523;28;45417;-63
2022/08/11 04:35:36;;;;;;;;;9.50;9.50;;;;;25.42;32.17;101413.09;5013923;28;45408;-62
2022/08/11 04:38:26;;;;;;;;;8.75;8.75;;;;;25.41;31.87;101414.06;5020811;28;45820;-63
2022/08/11 04:41:32;;;;;;;;;8.50;8.50;;;;;25.42;31.32;101410.34;5020600;28;45305;-63
2022/08/11 04:44:34;;;;;;;;;9.00;9.00;;;;;25.42;31.74;101421.28;5020418;28;45230;-62
2022/08/11 05:02:46;;;;;;;;;12.50;10.25;;;;;25.31;32.28;101408.56;5007753;28;45491;-62
2022/08/11 05:05:48;;;;;;;;;8.00;7.75;;;;;25.30;32.32;101413.13;5020242;28;45312;-62
2022/08/11 05:08:49;;;;;;;;;9.50;9.00;;;;;25.28;32.53;101415.13;5020170;28;45433;-62
2022/08/11 05:11:35;;;;;;;;;10.25;10.25;;;;;25.28;32.53;101425.19;5019931;28;45268;-62
2022/08/11 05:34:51;;;;;;;;;10.00;10.00;;;;;25.22;32.68;101440.19;5018666;28;45877;-62
2022/08/11 05:37:29;;;;;;;;;11.50;11.50;;;;;25.21;32.87;101437.59;5019696;28;45447;-62
2022/08/11 05:57:03;;;;;;;;;9.50;9.50;;;;;25.13;32.20;101451.91;5019277;28;45265;-62
2022/08/11 05:59:30;;;;;;;;;10.50;9.50;;;;;25.10;31.32;101449.41;5019409;28;45363;-63
2022/08/11 06:02:05;;;;;;;;;9.00;9.00;;;;;25.10;31.43;101450.28;5019128;28;45328;-62
2022/08/11 06:04:32;;;;;;;;;9.00;9.00;;;;;25.11;31.25;101449.28;5019361;28;45513;-63
2022/08/11 06:07:05;;;;;;;;;9.25;8.25;;;;;25.12;31.42;101455.63;5019170;28;46156;-62
2022/08/11 06:09:49;;;;;;;;;9.00;9.00;;;;;25.11;31.66;101452.03;5019024;28;45373;-62
2022/08/11 06:12:20;;;;;;;;;11.75;9.00;;;;;25.11;30.77;101457.47;5018141;28;45497;-63
2022/08/11 06:14:49;;;;;;;;;9.25;8.50;;;;;25.06;31.41;101448.81;5016113;28;45400;-62
2022/08/11 06:17:25;;;;;;;;;9.25;9.25;;;;;25.05;30.97;101447.06;5019238;28;45511;-62
2022/08/11 06:19:58;;;;;;;;;10.25;10.25;;;;;25.08;31.47;101463.19;5018977;28;45308;-62
2022/08/11 06:22:25;;;;;;;;;6.50;6.50;;;;;25.11;30.55;101459.34;5022328;28;45486;-62
2022/08/11 06:24:56;;;;;;;;;8.50;8.00;;;;;25.16;31.41;101459.84;5022721;28;45308;-62
2022/08/11 06:27:25;;;;;;;;;8.25;7.75;;;;;25.21;30.83;101462.16;5022265;28;46148;-62
2022/08/11 06:29:52;;;;;;;;;8.25;8.25;;;;;25.17;31.09;101461.56;5022162;28;45324;-63
2022/08/11 06:32:20;;;;;;;;;9.25;7.75;;;;;25.13;30.68;101463.69;5022584;28;45351;-62
2022/08/11 06:35:03;;;;;;;;;10.25;10.25;;;;;25.18;30.93;101467.91;5022514;28;45408;-63
2022/08/11 06:37:47;;;;;;;;;10.50;9.00;;;;;25.13;31.06;101452.75;5022176;28;46994;-62
2022/08/11 06:44:12;;;;;;;;;9.50;9.00;;;;;25.15;30.61;101458.94;5016435;28;45372;-63
2022/08/11 06:46:41;;;;;;;;;11.00;11.00;;;;;25.14;31.46;101457.22;5022034;28;45306;-62
2022/08/11 06:52:12;;;;;;;;;9.75;9.75;;;;;25.12;31.72;101452.88;5022138;28;45442;-62
2022/08/11 06:54:43;;;;;;;;;11.25;9.75;;;;;25.17;31.02;101452.50;5022347;28;45329;-62
2022/08/11 07:02:51;;;;;;;;;9.75;9.00;;;;;25.22;31.33;101466.66;5022049;28;45285;-62
2022/08/11 07:05:36;;;;;;;;;8.75;8.75;;;;;25.26;31.46;101470.84;5022054;28;45324;-62
2022/08/11 07:17:16;;;;;;;;;11.00;9.75;;;;;25.40;32.06;101478.81;5022031;28;45318;-62
2022/08/11 07:30:57;;;;;;;;;11.00;10.25;;;;;25.61;31.71;101475.25;5021546;28;45477;-62
2022/08/11 07:33:31;;;;;;;;;8.50;8.25;;;;;25.63;31.41;101471.41;5020338;28;46212;-63
2022/08/11 07:35:59;;;;;;;;;10.25;9.75;;;;;25.63;31.31;101462.34;5020385;28;45453;-62
2022/08/11 07:38:43;;;;;;;;;9.25;7.75;;;;;25.63;30.97;101462.34;5021671;28;45361;-62
2022/08/11 07:41:15;;;;;;;;;7.75;7.75;;;;;25.69;31.39;101464.53;5021733;28;45546;-62
2022/08/11 07:43:42;;;;;;;;;7.50;7.50;;;;;25.70;30.55;101463.56;5021049;28;46394;-63
2022/08/11 07:54:27;;;;;;;;;8.00;7.75;;;;;25.84;31.21;101462.34;5021143;28;45422;-62
2022/08/11 07:56:53;;;;;;;;;8.50;8.50;;;;;25.87;30.55;101462.97;5020846;28;45351;-62
2022/08/11 08:18:38;;;;;;;;;9.50;7.00;;;;;26.34;30.62;101453.53;5020931;28;45231;-62
2022/08/11 08:21:14;;;;;;;;;9.00;9.00;;;;;26.35;30.76;101442.44;5020952;28;45380;-63
2022/08/11 08:23:45;;;;;;;;;11.25;10.25;;;;;26.45;30.78;101458.91;5020877;28;45283;-62
2022/08/11 08:31:48;;;;;;;;;8.25;6.75;;;;;26.61;30.55;101453.81;5020583;28;45351;-62
2022/08/11 08:34:15;;;;;;;;;7.00;7.00;;;;;26.65;31.35;101442.59;5020551;28;45331;-63
2022/08/11 08:36:46;;;;;;;;;8.50;8.50;;;;;26.77;31.39;101453.31;5020533;28;46167;-62
2022/08/11 08:39:13;;;;;;;;;7.25;6.25;;;;;26.82;30.88;101450.19;5020419;28;45585;-63
2022/08/11 08:41:41;;;;;;;;;9.00;8.25;;;;;26.88;30.82;101452.38;5020546;28;45464;-63
2022/08/11 08:44:08;;;;;;;;;11.50;9.75;;;;;26.93;30.71;101441.84;5019999;28;45170;-62
2022/08/11 08:46:49;;;;;;;;;8.50;8.50;;;;;27.00;30.87;101455.88;5020202;28;45486;-63
2022/08/11 08:49:18;;;;;;;;;8.75;8.00;;;;;27.06;30.47;101452.53;5019536;28;45429;-62
2022/08/11 08:51:48;;;;;;;;;7.00;7.00;;;;;27.08;30.27;101442.34;5020076;28;45398;-62
2022/08/11 08:54:18;;;;;;;;;10.00;10.00;;;;;27.15;29.99;101450.84;5020436;28;45489;-63
2022/08/11 08:56:45;;;;;;;;;9.00;8.25;;;;;27.18;30.54;101448.69;5020099;28;45411;-62
2022/08/11 08:59:15;;;;;;;;;7.25;7.25;;;;;27.23;30.09;101451.03;5020413;28;45289;-62
2022/08/11 09:01:59;;;;;;;;;7.75;7.75;;;;;27.29;30.27;101450.47;5020015;28;45382;-63
2022/08/11 09:04:26;;;;;;;;;6.75;6.50;;;;;27.38;30.21;101456.09;5012201;28;45249;-63
2022/08/11 09:06:52;;;;;;;;;8.25;7.25;;;;;27.42;30.34;101457.56;5019981;28;46180;-62
2022/08/11 09:09:20;;;;;;;;;7.50;7.50;;;;;27.48;30.33;101448.75;5017751;28;45166;-62
2022/08/11 09:11:49;;;;;;;;;8.25;8.25;;;;;27.48;29.78;101446.91;5019821;28;45384;-63
2022/08/11 09:17:21;;;;;;;;;7.00;5.75;;;;;27.64;29.97;101450.94;5020045;28;45383;-63
2022/08/11 09:19:47;;;;;;;;;8.00;8.00;;;;;27.65;29.93;101438.94;5019844;28;45260;-63
2022/08/11 09:27:48;;;;;;;;;10.75;7.75;;;;;27.83;29.81;101434.50;5019632;28;45328;-62
2022/08/11 09:30:14;;;;;;;;;8.25;6.75;;;;;27.91;29.57;101433.75;5019556;28;45566;-63
2022/08/11 09:32:40;;;;;;;;;6.25;6.25;;;;;27.98;29.22;101432.16;5019916;28;45350;-62
2022/08/11 09:35:07;;;;;;;;;6.00;6.00;;;;;28.05;29.94;101433.31;5020115;28;45421;-63
2022/08/11 09:40:30;;;;;;;;;7.25;6.25;;;;;28.17;28.43;101422.19;5018976;28;45229;-63
2022/08/11 09:45:51;;;;;;;;;8.50;6.50;;;;;28.23;29.37;101408.72;5019340;28;45450;-63
2022/08/11 09:48:18;;;;;;;;;5.25;4.75;;;;;28.39;28.63;101429.19;5019694;28;46181;-63
2022/08/11 09:50:48;;;;;;;;;8.00;8.00;;;;;28.48;28.70;101421.94;5019410;28;45142;-63
2022/08/11 09:53:15;;;;;;;;;5.75;5.50;;;;;28.58;28.52;101420.88;5019541;28;45379;-63
2022/08/11 09:55:43;;;;;;;;;9.75;7.50;;;;;28.65;28.69;101423.91;5019797;28;45406;-63
2022/08/11 09:58:16;;;;;;;;;7.25;6.25;;;;;28.72;27.48;101419.53;5021279;28;46962;-63
2022/08/11 10:00:43;;;;;;;;;7.00;7.00;;;;;28.78;28.22;101420.81;5022842;28;45427;-63
2022/08/11 10:03:16;;;;;;;;;6.00;6.00;;;;;28.83;27.98;101416.59;5022946;28;45439;-63
2022/08/11 10:08:39;;;;;;;;;7.50;7.25;;;;;28.98;27.88;101407.81;5022721;28;45782;-63
2022/08/11 10:11:10;;;;;;;;;7.00;6.00;;;;;29.06;27.81;101409.81;5022924;28;45356;-63
2022/08/11 10:16:29;;;;;;;;;7.00;7.00;;;;;29.19;27.59;101404.84;5019979;28;45352;-63
2022/08/11 10:18:58;;;;;;;;;8.00;7.00;;;;;29.25;27.43;101403.34;5022693;28;45276;-63
2022/08/11 10:21:23;;;;;;;;;7.50;6.75;;;;;29.31;27.15;101408.22;5022655;28;45517;-63
2022/08/11 10:26:53;;;;;;;;;3.75;3.75;;;;;29.36;26.46;101394.84;5010400;28;45328;-63
2022/08/11 10:34:53;;;;;;;;;8.75;7.50;;;;;29.52;27.21;101388.63;5022676;28;45241;-64
2022/08/11 10:37:23;;;;;;;;;7.00;5.25;;;;;29.62;25.53;101394.06;5022333;28;45360;-64
2022/08/11 10:39:50;;;;;;;;;7.50;7.50;;;;;29.67;25.81;101386.19;5022517;28;46186;-63
2022/08/11 10:47:33;;;;;;;;;9.50;9.00;;;;;29.77;25.68;101376.00;5022406;28;45234;-63
2022/08/11 10:47:52;;;;;;;;;5.00;5.00;;;;;29.80;26.15;101370.16;5022297;28;45467;-64
2022/08/11 10:58:46;;;;;;;;;6.25;6.25;;;;;30.03;25.15;101369.63;5021898;28;45245;-64
2022/08/11 11:01:13;;;;;;;;;8.25;8.25;;;;;30.05;25.36;101375.84;5021633;28;46342;-63
2022/08/11 11:03:40;;;;;;;;;9.25;7.25;;;;;30.05;25.01;101367.56;5021813;28;45394;-63
2022/08/11 11:06:32;;;;;;;;;6.00;6.00;;;;;30.06;24.71;101363.81;5022243;28;45336;-64
2022/08/11 11:09:03;;;;;;;;;7.00;7.00;;;;;30.10;25.13;101365.19;5022167;28;45217;-63
2022/08/11 11:19:41;;;;;;;;;8.00;8.00;;;;;30.30;25.19;101352.06;5021719;28;45331;-64
2022/08/11 11:25:16;;;;;;;;;8.75;7.75;;;;;30.39;24.89;101325.44;5010164;28;45307;-64
2022/08/11 11:28:00;;;;;;;;;6.75;6.75;;;;;30.40;25.83;101327.19;5021541;28;45309;-64
2022/08/11 11:30:36;;;;;;;;;7.00;7.00;;;;;30.43;25.33;101335.13;5021520;28;45237;-64
2022/08/11 11:33:16;;;;;;;;;8.00;8.00;;;;;30.43;24.66;101330.47;5020221;28;45353;-64
2022/08/11 11:36:08;;;;;;;;;9.00;8.00;;;;;30.42;24.40;101331.50;5021404;28;45330;-64
2022/08/11 11:38:34;;;;;;;;;7.00;7.00;;;;;30.43;24.70;101324.94;5021692;28;45415;-64
2022/08/11 11:43:45;;;;;;;;;8.25;8.25;;;;;30.54;24.55;101339.44;5021200;28;45419;-64
2022/08/11 11:46:12;;;;;;;;;8.75;8.75;;;;;30.55;24.34;101342.03;5021226;28;45387;-64
2022/08/11 11:48:40;;;;;;;;;7.00;7.00;;;;;30.55;24.25;101331.03;5021578;28;45364;-64
2022/08/11 11:51:06;;;;;;;;;8.50;8.50;;;;;30.57;24.61;101331.75;5021364;28;45545;-64
2022/08/11 11:53:32;;;;;;;;;8.25;8.25;;;;;30.59;23.68;101323.28;5021009;28;46260;-64
2022/08/11 11:55:59;;;;;;;;;7.75;7.75;;;;;30.61;24.35;101333.13;5021400;28;45171;-64
2022/08/11 12:01:18;;;;;;;;;7.75;6.00;;;;;30.66;23.95;101314.19;5020599;28;45333;-64
2022/08/11 12:03:47;;;;;;;;;8.00;8.00;;;;;30.66;24.07;101314.19;5020906;28;47667;-64
2022/08/11 12:06:14;;;;;;;;;9.00;9.00;;;;;30.69;24.27;101328.66;5021029;28;45536;-64
2022/08/11 12:08:41;;;;;;;;;9.75;8.00;;;;;30.70;23.70;101316.63;5021460;28;45317;-64
2022/08/11 12:13:58;;;;;;;;;8.00;8.00;;;;;30.74;23.98;101320.75;5020882;28;45431;-64
2022/08/11 12:16:24;;;;;;;;;7.75;7.00;;;;;30.74;23.75;101310.59;5020708;28;45401;-64
2022/08/11 12:18:53;;;;;;;;;7.25;7.25;;;;;30.76;23.66;101305.78;5020491;28;45222;-64
2022/08/11 12:21:18;;;;;;;;;9.50;9.00;;;;;30.78;23.88;101303.72;5020737;28;45524;-64
2022/08/11 12:29:20;;;;;;;;;7.50;7.50;;;;;30.83;23.40;101290.28;5020634;28;45351;-64
2022/08/11 12:31:47;;;;;;;;;9.25;8.75;;;;;30.84;23.32;101278.25;5019519;28;45561;-64
2022/08/11 12:34:14;;;;;;;;;9.25;7.00;;;;;30.87;23.63;101289.94;5020483;28;45433;-64
2022/08/11 12:37:11;;;;;;;;;6.00;6.00;;;;;30.92;23.59;101291.16;5020622;28;45300;-64
2022/08/11 12:45:28;;;;;;;;;4.00;2.75;;;;;30.96;23.28;101266.94;5020112;28;45715;-64
2022/08/11 12:53:42;;;;;;;;;9.00;9.00;;;;;31.06;23.75;101267.63;5019835;28;45332;-64
2022/08/11 13:07:09;;;;;;;;;8.00;8.00;;;;;31.15;22.92;101272.09;5018760;28;45332;-64
2022/08/11 13:09:34;;;;;;;;;9.25;8.25;;;;;31.14;23.01;101277.78;5018623;28;45541;-64
2022/08/11 13:14:44;;;;;;;;;6.50;5.50;;;;;31.14;22.81;101264.88;5018311;28;45253;-64
2022/08/11 13:17:23;;;;;;;;;9.50;9.50;;;;;31.14;22.72;101258.47;5018750;28;46076;-64
2022/08/11 13:19:50;;;;;;;;;8.00;8.00;;;;;31.12;22.50;101255.88;5018448;28;45420;-64
2022/08/11 13:22:18;;;;;;;;;7.75;7.75;;;;;31.19;22.87;101262.44;5018749;28;45328;-64
2022/08/11 13:24:46;;;;;;;;;8.50;8.50;;;;;31.20;22.55;101263.31;5018535;28;45299;-64
2022/08/11 13:27:15;;;;;;;;;7.25;7.00;;;;;31.21;22.63;101262.28;5018400;28;46278;-64
2022/08/11 13:29:45;;;;;;;;;8.00;8.00;;;;;31.21;22.92;101270.56;5017919;28;45806;-64
2022/08/11 13:32:12;;;;;;;;;10.00;8.75;;;;;31.23;22.71;101260.19;5018007;28;45462;-64
2022/08/11 13:34:41;;;;;;;;;9.00;9.00;;;;;31.23;22.54;101257.44;5018478;28;45471;-64
2022/08/11 13:37:09;;;;;;;;;6.50;6.50;;;;;31.23;22.63;101237.28;5018257;28;46418;-64
2022/08/11 13:39:35;;;;;;;;;10.25;10.25;;;;;31.26;22.68;101253.47;5018557;28;45428;-64
2022/08/11 13:42:03;;;;;;;;;7.50;7.50;;;;;31.28;22.49;101241.25;5017197;28;45341;-64
2022/08/11 13:44:34;;;;;;;;;7.00;7.00;;;;;31.29;22.79;101242.97;5018115;28;45506;-64
2022/08/11 13:47:02;;;;;;;;;7.25;6.75;;;;;31.29;23.15;101231.94;5018163;28;45470;-64
2022/08/11 13:49:35;;;;;;;;;9.00;9.00;;;;;31.31;22.70;101243.66;5018158;28;45426;-64
2022/08/11 13:52:02;;;;;;;;;9.25;9.25;;;;;31.32;22.76;101231.56;5018318;28;45485;-64
2022/08/11 13:54:31;;;;;;;;;9.50;9.50;;;;;31.33;22.81;101246.25;4979187;28;1134440;-64
2022/08/11 13:57:01;;;;;;;;;8.75;8.75;;;;;31.30;23.19;101228.13;5017363;28;46189;-64
2022/08/11 13:59:28;;;;;;;;;7.50;7.50;;;;;31.35;23.07;101227.63;5019443;28;45437;-64
2022/08/11 14:01:56;;;;;;;;;9.75;9.75;;;;;31.37;23.07;101231.06;5019323;28;46189;-64
2022/08/11 14:04:29;;;;;;;;;9.50;8.75;;;;;31.35;22.83;101238.66;5019410;28;45447;-64
2022/08/11 14:06:58;;;;;;;;;8.75;8.75;;;;;31.39;22.95;101237.25;5019193;28;45265;-64
2022/08/11 14:09:26;;;;;;;;;10.00;10.00;;;;;31.42;22.80;101247.09;5019436;28;45464;-64
2022/08/11 14:14:48;;;;;;;;;8.75;8.75;;;;;31.46;22.51;101229.13;5018931;28;45429;-64
2022/08/11 14:17:16;;;;;;;;;8.00;8.00;;;;;31.48;22.34;101232.59;5019322;28;46335;-64
2022/08/11 14:19:45;;;;;;;;;7.25;7.25;;;;;31.48;22.30;101230.69;5019164;28;45490;-64
2022/08/11 14:22:14;;;;;;;;;8.75;8.75;;;;;31.48;22.16;101227.09;5019428;28;45227;-64
2022/08/11 14:24:42;;;;;;;;;8.50;8.50;;;;;31.48;22.75;101213.28;5018020;28;45319;-64
2022/08/11 14:27:12;;;;;;;;;7.25;7.25;;;;;31.49;22.72;101215.00;5018955;28;46791;-64
2022/08/11 14:29:40;;;;;;;;;7.75;7.75;;;;;31.49;22.34;101213.13;5018722;28;45407;-64
2022/08/11 14:32:08;;;;;;;;;9.00;9.00;;;;;31.49;22.77;101206.72;5019224;28;45331;-64
2022/08/11 14:34:37;;;;;;;;;9.75;9.75;;;;;31.50;23.02;101202.94;5019242;28;45233;-64
2022/08/11 14:37:11;;;;;;;;;9.00;9.00;;;;;31.54;22.49;101204.31;5019004;28;45180;-64
2022/08/11 14:39:42;;;;;;;;;9.00;9.00;;;;;31.55;23.10;101197.78;5019212;28;45218;-64
2022/08/11 14:47:42;;;;;;;;;9.25;9.25;;;;;31.53;22.71;101175.88;5022285;28;45804;-64
2022/08/11 14:50:16;;;;;;;;;9.50;9.50;;;;;31.55;22.67;101172.94;5022096;28;45367;-64
2022/08/11 14:52:47;;;;;;;;;8.25;8.25;;;;;31.52;22.30;101165.03;5022442;28;45202;-64
2022/08/11 14:58:00;;;;;;;;;12.75;11.00;;;;;31.63;22.43;101178.44;5022179;28;45786;-64
2022/08/11 15:00:26;;;;;;;;;9.25;8.50;;;;;31.62;22.35;101165.66;5021978;28;45328;-64
2022/08/11 15:05:50;;;;;;;;;10.75;10.75;;;;;31.67;22.09;101162.38;5002739;28;45210;-64
2022/08/11 15:08:18;;;;;;;;;9.50;9.50;;;;;31.69;21.94;101168.56;5021877;28;45435;-64
2022/08/11 15:10:45;;;;;;;;;10.50;9.25;;;;;31.70;22.48;101153.75;5022103;28;45460;-64
2022/08/11 15:13:17;;;;;;;;;9.25;8.25;;;;;31.72;21.92;101158.03;5021912;28;45228;-64
2022/08/11 15:18:28;;;;;;;;;11.00;9.75;;;;;31.72;22.06;101146.16;5021785;28;45853;-64
2022/08/11 15:37:42;;;;;;;;;11.00;11.00;;;;;31.80;22.09;101139.75;5021470;28;45368;-64
2022/08/11 15:46:02;;;;;;;;;11.00;10.00;;;;;31.85;21.61;101148.34;5021371;28;45292;-64
2022/08/11 15:48:42;;;;;;;;;9.25;9.00;;;;;31.86;21.55;101144.53;5021440;28;45312;-64
2022/08/11 15:51:26;;;;;;;;;8.00;8.00;;;;;31.89;22.12;101146.94;5021089;28;46200;-64
2022/08/11 15:53:56;;;;;;;;;10.25;10.25;;;;;31.89;22.02;101136.78;5017983;28;45427;-64
2022/08/11 15:56:26;;;;;;;;;9.50;8.00;;;;;31.88;21.60;101139.72;5021742;28;45367;-64
2022/08/11 16:04:30;;;;;;;;;10.00;9.00;;;;;31.86;21.51;101131.59;5013884;28;45213;-64
2022/08/11 16:07:11;;;;;;;;;10.00;10.00;;;;;31.88;21.87;101131.44;5020912;28;45456;-64
2022/08/11 16:09:43;;;;;;;;;11.50;11.50;;;;;31.88;21.70;101124.00;5021135;28;45245;-64
2022/08/11 16:12:12;;;;;;;;;11.50;11.00;;;;;31.91;22.07;101136.56;5020776;28;46879;-64
2022/08/11 16:17:32;;;;;;;;;8.25;8.25;;;;;31.94;21.62;101133.44;5021235;28;45418;-64
2022/08/11 16:19:59;;;;;;;;;10.25;10.25;;;;;31.93;21.49;101121.56;5020884;28;45439;-64
2022/08/11 16:22:37;;;;;;;;;10.75;9.75;;;;;31.92;21.73;101122.59;5020887;28;45435;-64
2022/08/11 16:25:06;;;;;;;;;8.25;7.25;;;;;31.91;21.57;101128.28;5020607;28;45341;-64
2022/08/11 16:27:35;;;;;;;;;7.75;7.75;;;;;31.94;21.53;101127.91;5019840;28;45420;-64
2022/08/11 16:30:04;;;;;;;;;8.75;8.50;;;;;31.94;21.67;101125.16;5019370;28;45345;-64
2022/08/11 16:32:30;;;;;;;;;8.50;8.50;;;;;31.92;21.67;101122.59;5019508;28;45332;-64
2022/08/11 16:40:31;;;;;;;;;11.25;10.25;;;;;31.93;21.62;101106.91;5020655;28;45208;-64
2022/08/11 16:48:41;;;;;;;;;11.75;10.50;;;;;31.91;21.86;101098.78;5020604;28;45450;-64
2022/08/11 16:51:09;;;;;;;;;9.25;9.25;;;;;31.93;21.89;101102.22;5020377;28;45537;-64
2022/08/11 16:53:37;;;;;;;;;11.50;11.50;;;;;31.90;21.69;101104.50;5019983;28;45399;-64
2022/08/11 16:56:04;;;;;;;;;10.25;8.25;;;;;31.90;21.89;101108.09;5020437;28;45431;-64
2022/08/11 17:01:20;;;;;;;;;10.00;10.00;;;;;31.93;22.01;101090.34;5020038;28;45290;-64